Swinomish — WC5223 — position and weather

sailwx.info

Track history (hours):
 
Tides and Currents Weather Stations Pressure Air Temp Water Temp Dewpoint Dewpoint Depression Visibility Wind Speed Wind Dir Waves Ship Positions

Swinomish

Owner: DUNLAP TOWING CO, LA CONNER, WA. More information available from US FCC via Universal Licensing System and Coast Guard Vessel Documentation Center.

Last reported at 2018-Jan-18 17:26 UTC. Time now 2018-Jan-18 17:59 UTC.
Position N 48°48' W 123°11'.

Length 15 m; draft 3.5 m.

Type: Tug. MMSI: 366972050.

Date/timePositionNaut miles runAvg speedWind from/ knotsBaromVisibWave heightAir tempDewpointWater temp
2018-Jan-18 17:26N 48°48' W 123°11'0 0.0
2018-Jan-18 17:00N 48°48' W 123°11'0 0.0
2018-Jan-18 16:30N 48°48' W 123°11'0 0.0
2018-Jan-18 15:56N 48°48' W 123°11'0 0.0
2018-Jan-18 15:30N 48°48' W 123°11'0 0.0
2018-Jan-18 14:59N 48°48' W 123°11'0 0.0
2018-Jan-18 14:30N 48°48' W 123°11'0 0.0
2018-Jan-18 14:00N 48°48' W 123°11'0 0.0
2018-Jan-18 13:24N 48°48' W 123°11'0 0.0
2018-Jan-18 12:56N 48°48' W 123°11'0 0.0
2018-Jan-18 12:27N 48°48' W 123°11'0 0.0
2018-Jan-18 12:00N 48°48' W 123°11'0 0.0
2018-Jan-18 11:30N 48°48' W 123°11'0 0.0
2018-Jan-18 11:00N 48°48' W 123°11'0 0.0
2018-Jan-18 10:29N 48°48' W 123°11'0 0.0
2018-Jan-18 10:00N 48°48' W 123°11'0 0.0
2018-Jan-18 09:30N 48°48' W 123°11'0 0.0
2018-Jan-18 09:00N 48°48' W 123°11'0 0.0
2018-Jan-18 08:30N 48°48' W 123°11'0 0.0
2018-Jan-18 08:00N 48°48' W 123°11'0 0.0
2018-Jan-18 07:30N 48°48' W 123°11'0 0.0
2018-Jan-18 06:57N 48°48' W 123°11'0 0.0
2018-Jan-18 06:30N 48°48' W 123°11'0 0.0
2018-Jan-18 05:57N 48°48' W 123°11'0 0.0
2018-Jan-18 05:30N 48°48' W 123°11'0 0.0
2018-Jan-18 05:00N 48°48' W 123°11'0 0.0
2018-Jan-18 04:29N 48°48' W 123°11'0 0.0
2018-Jan-18 03:58N 48°48' W 123°11'0 0.0
2018-Jan-18 03:29N 48°48' W 123°11'0 0.0
2018-Jan-18 02:59N 48°48' W 123°11'0 0.0
2018-Jan-18 02:29N 48°48' W 123°11'0 0.0
2018-Jan-18 02:00N 48°48' W 123°11'0 0.0
2018-Jan-18 01:30N 48°48' W 123°11'0 0.0
2018-Jan-18 00:59N 48°48' W 123°11'0 0.0
2018-Jan-17 23:55N 48°48' W 123°11'  
2018-Jan-12 13:14N 47°05' W 122°55'1 1.4
2018-Jan-12 12:45N 47°06' W 122°55'1 1.4
2018-Jan-12 12:22N 47°06' W 122°55'1 1.5
2018-Jan-12 11:55N 47°07' W 122°55'1 1.4
2018-Jan-12 11:16N 47°08' W 122°55'0 1.3
2018-Jan-12 10:58N 47°08' W 122°55'2 1.7
2018-Jan-12 09:48N 47°10' W 122°53'9 1.5
2018-Jan-12 03:27N 47°11' W 122°39'1 1.4
2018-Jan-12 03:00N 47°12' W 122°38'1 1.2
2018-Jan-12 02:30N 47°12' W 122°38'0 0.7
2018-Jan-12 01:57N 47°12' W 122°38'1 0.2
2018-Jan-11 18:32N 47°13' W 122°36'0 1.9
2018-Jan-11 18:30N 47°13' W 122°36'1 2.6
2018-Jan-11 18:00N 47°14' W 122°35'1 2.7
2018-Jan-11 17:30N 47°15' W 122°34'2 3.5
2018-Jan-11 16:59N 47°17' W 122°32'1 2.4
2018-Jan-11 16:30N 47°18' W 122°32'1 1.7
2018-Jan-11 15:59N 47°19' W 122°33'1 1.6
2018-Jan-11 15:30N 47°19' W 122°33'1 1.4
2018-Jan-11 15:00N 47°19' W 122°32'1 1.1
2018-Jan-11 14:30N 47°19' W 122°31'1 1.1
2018-Jan-11 14:00N 47°19' W 122°31'1 1.1
2018-Jan-11 13:30N 47°18' W 122°30'1 1.5
2018-Jan-11 13:00N 47°18' W 122°29'0 1.0
2018-Jan-11 12:30N 47°18' W 122°29'1 1.2
2018-Jan-11 12:00N 47°17' W 122°28'0 0.2
2018-Jan-11 11:30N 47°17' W 122°28'0 0.2
2018-Jan-11 11:00N 47°17' W 122°28'0 0.2
2018-Jan-11 10:30N 47°17' W 122°28'0 0.2
2018-Jan-11 10:00N 47°17' W 122°28'0 0.2
2018-Jan-11 09:30N 47°17' W 122°28'0 0.2
2018-Jan-11 09:00N 47°17' W 122°29'0 0.5
2018-Jan-11 08:30N 47°18' W 122°29'0 0.5
2018-Jan-11 08:00N 47°18' W 122°29'0 0.5
2018-Jan-11 07:30N 47°18' W 122°29'0 0.8
2018-Jan-11 07:00N 47°17' W 122°28'0 0.7
2018-Jan-11 06:30N 47°17' W 122°28'0 0.6
2018-Jan-11 06:00N 47°17' W 122°28'0 0.4
2018-Jan-11 05:30N 47°17' W 122°28'0 1.0
2018-Jan-11 05:00N 47°17' W 122°28'0 0.7
2018-Jan-11 04:30N 47°17' W 122°29'0 0.6
2018-Jan-11 04:00N 47°18' W 122°29'0 0.6
2018-Jan-11 03:30N 47°18' W 122°29'0 0.8
2018-Jan-11 03:00N 47°18' W 122°29'1 1.6
2018-Jan-11 02:30N 47°19' W 122°30'0 0.5
2018-Jan-11 02:00N 47°19' W 122°30'1 1.9
2018-Jan-11 01:30N 47°20' W 122°28'1 1.7
2018-Jan-11 01:00N 47°20' W 122°27'1 1.5
2018-Jan-11 00:30N 47°21' W 122°27'1 1.4
2018-Jan-11 00:00N 47°21' W 122°26'1 1.3
2018-Jan-10 23:30N 47°22' W 122°25'1 1.4
2018-Jan-10 23:00N 47°22' W 122°24'1 1.2
2018-Jan-10 22:30N 47°22' W 122°24'1 1.0
2018-Jan-10 22:00N 47°23' W 122°23'0 0.9
2018-Jan-10 21:30N 47°23' W 122°23'0 0.9
2018-Jan-10 21:00N 47°23' W 122°22'1 1.1
2018-Jan-10 20:30N 47°24' W 122°22'1 1.2
2018-Jan-10 20:00N 47°24' W 122°23'1 1.4
2018-Jan-10 19:30N 47°24' W 122°24'1 1.7
2018-Jan-10 19:00N 47°25' W 122°25'1 1.6
2018-Jan-10 18:30N 47°26' W 122°25'1 1.5
2018-Jan-10 18:00N 47°27' W 122°25'1 1.3
2018-Jan-10 17:30N 47°27' W 122°25'1 1.3
2018-Jan-10 17:00N 47°28' W 122°26'1 1.3
2018-Jan-10 16:30N 47°28' W 122°26'1 1.5
2018-Jan-10 16:00N 47°29' W 122°26'1 1.6
2018-Jan-10 15:30N 47°30' W 122°27'1 1.9
2018-Jan-10 15:00N 47°31' W 122°27'1 1.8
2018-Jan-10 14:31N 47°32' W 122°27'1 1.6
2018-Jan-10 14:01N 47°32' W 122°28'1 1.5
2018-Jan-10 13:30N 47°33' W 122°28'1 1.5
2018-Jan-10 13:00N 47°34' W 122°28'1 1.5
2018-Jan-10 12:30N 47°35' W 122°28'1 1.8
2018-Jan-10 12:00N 47°36' W 122°28'1 1.8
2018-Jan-10 11:30N 47°36' W 122°28'1 1.5
2018-Jan-10 11:00N 47°37' W 122°29'1 1.3
2018-Jan-10 10:30N 47°38' W 122°29'1 1.5
2018-Jan-10 10:00N 47°39' W 122°29'1 1.2
2018-Jan-10 09:30N 47°39' W 122°29'1 1.2
2018-Jan-10 09:00N 47°40' W 122°29'1 1.0
2018-Jan-10 08:30N 47°40' W 122°29'0 1.0
2018-Jan-10 08:00N 47°41' W 122°29'1 1.1
2018-Jan-10 07:30N 47°41' W 122°29'1 1.2
2018-Jan-10 07:00N 47°42' W 122°29'1 1.3
2018-Jan-10 06:30N 47°42' W 122°29'1 1.4
2018-Jan-10 06:00N 47°43' W 122°29'1 1.4
2018-Jan-10 05:30N 47°44' W 122°28'1 1.6
2018-Jan-10 05:00N 47°45' W 122°28'1 2.0
2018-Jan-10 04:30N 47°46' W 122°28'1 1.7
2018-Jan-10 04:00N 47°46' W 122°27'1 1.6
2018-Jan-10 03:30N 47°47' W 122°26'1 1.5
2018-Jan-10 03:00N 47°47' W 122°25'1 1.2
2018-Jan-10 02:30N 47°48' W 122°25'1 1.1
2018-Jan-10 02:00N 47°48' W 122°25'1 1.4
2018-Jan-10 01:30N 47°49' W 122°25'1 2.0
2018-Jan-10 01:00N 47°50' W 122°24'1 2.3
2018-Jan-10 00:30N 47°51' W 122°23'1 2.6
2018-Jan-10 00:00N 47°52' W 122°22'2 3.2
2018-Jan-09 23:30N 47°53' W 122°21'2 3.0
2018-Jan-09 23:00N 47°55' W 122°21'1 3.0
2018-Jan-09 22:30N 47°56' W 122°20'1 2.7
2018-Jan-09 22:00N 47°57' W 122°19'1 2.3
2018-Jan-09 21:30N 47°58' W 122°18'1 2.1
2018-Jan-09 21:00N 47°58' W 122°16'1 1.9
2018-Jan-09 20:30N 47°58' W 122°15'1 1.8
2018-Jan-09 20:00N 47°59' W 122°13'0 0.5
2018-Jan-09 19:30N 47°59' W 122°13'0 0.0
2018-Jan-09 19:00N 47°59' W 122°13'0 0.0
2018-Jan-09 18:30N 47°59' W 122°13'0 0.0
2018-Jan-09 18:00N 47°59' W 122°13'0 0.0
2018-Jan-09 17:30N 47°59' W 122°13'0 0.0
2018-Jan-09 17:00N 47°59' W 122°13'0 0.0
2018-Jan-09 16:30N 47°59' W 122°13'0 0.0
2018-Jan-09 16:00N 47°59' W 122°13'0 0.0
2018-Jan-09 15:30N 47°59' W 122°13'0 0.0
2018-Jan-09 15:00N 47°59' W 122°13'0 0.0
2018-Jan-09 14:30N 47°59' W 122°13'0 0.0
2018-Jan-09 14:00N 47°59' W 122°13'0 0.4
2018-Jan-09 13:30N 47°59' W 122°13'0 0.1
2018-Jan-09 13:00N 47°59' W 122°13'0 0.1
2018-Jan-09 12:30N 47°59' W 122°13'0 0.3
2018-Jan-09 12:00N 47°59' W 122°13'1 1.6
2018-Jan-09 11:30N 47°58' W 122°14'0 0.3
2018-Jan-09 11:00N 47°58' W 122°15'1 1.6
2018-Jan-09 10:30N 47°59' W 122°16'1 2.3
2018-Jan-09 10:00N 47°60' W 122°17'1 2.5
2018-Jan-09 09:30N 48°01' W 122°17'1 2.2
2018-Jan-09 08:58N 48°02' W 122°19'1 2.0
2018-Jan-09 08:24N 48°02' W 122°20'1 2.1
2018-Jan-09 07:57N 48°02' W 122°22'1 1.9
2018-Jan-09 07:26N 48°03' W 122°23'1 1.8
2018-Jan-09 07:00N 48°03' W 122°24'1 1.7
2018-Jan-09 06:30N 48°04' W 122°25'1 1.6
2018-Jan-09 05:58N 48°05' W 122°26'1 1.6
2018-Jan-09 05:24N 48°05' W 122°27'1 1.7
2018-Jan-09 04:51N 48°06' W 122°28'4 1.8
2018-Jan-09 02:22N 48°09' W 122°32'1 2.0
2018-Jan-09 02:00N 48°10' W 122°33'5 2.1
2018-Jan-08 23:38N 48°15' W 122°33'0 2.1
2018-Jan-08 23:26N 48°15' W 122°33'1 2.3
2018-Jan-08 22:56N 48°16' W 122°32'1 2.4
2018-Jan-08 22:30N 48°17' W 122°31'1 2.6
2018-Jan-08 21:55N 48°18' W 122°30'1 2.1
2018-Jan-08 21:27N 48°19' W 122°31'3 1.2
2018-Jan-08 18:58N 48°22' W 122°33'1 1.3
2018-Jan-08 18:28N 48°22' W 122°32'0 0.0
2018-Jan-08 17:57N 48°22' W 122°32'  
Track history (hours):
 
Tides and Currents Weather Stations Pressure Air Temp Water Temp Dewpoint Dewpoint Depression Visibility Wind Speed Wind Dir Waves Ship Positions

Swinomish

Owner: DUNLAP TOWING CO, LA CONNER, WA. More information available from US FCC via Universal Licensing System and Coast Guard Vessel Documentation Center.

Last reported at 2018-Jan-18 17:26 UTC. Time now 2018-Jan-18 17:59 UTC.
Position N 48°48' W 123°11'.

Length 15 m; draft 3.5 m.

Type: Tug. MMSI: 366972050.

Date/timePositionNaut miles runAvg speedWind from/ knotsBaromVisibWave heightAir tempDewpointWater temp
2018-Jan-18 17:26N 48°48' W 123°11'0 0.0
2018-Jan-18 17:00N 48°48' W 123°11'0 0.0
2018-Jan-18 16:30N 48°48' W 123°11'0 0.0
2018-Jan-18 15:56N 48°48' W 123°11'0 0.0
2018-Jan-18 15:30N 48°48' W 123°11'0 0.0
2018-Jan-18 14:59N 48°48' W 123°11'0 0.0
2018-Jan-18 14:30N 48°48' W 123°11'0 0.0
2018-Jan-18 14:00N 48°48' W 123°11'0 0.0
2018-Jan-18 13:24N 48°48' W 123°11'0 0.0
2018-Jan-18 12:56N 48°48' W 123°11'0 0.0
2018-Jan-18 12:27N 48°48' W 123°11'0 0.0
2018-Jan-18 12:00N 48°48' W 123°11'0 0.0
2018-Jan-18 11:30N 48°48' W 123°11'0 0.0
2018-Jan-18 11:00N 48°48' W 123°11'0 0.0
2018-Jan-18 10:29N 48°48' W 123°11'0 0.0
2018-Jan-18 10:00N 48°48' W 123°11'0 0.0
2018-Jan-18 09:30N 48°48' W 123°11'0 0.0
2018-Jan-18 09:00N 48°48' W 123°11'0 0.0
2018-Jan-18 08:30N 48°48' W 123°11'0 0.0
2018-Jan-18 08:00N 48°48' W 123°11'0 0.0
2018-Jan-18 07:30N 48°48' W 123°11'0 0.0
2018-Jan-18 06:57N 48°48' W 123°11'0 0.0
2018-Jan-18 06:30N 48°48' W 123°11'0 0.0
2018-Jan-18 05:57N 48°48' W 123°11'0 0.0
2018-Jan-18 05:30N 48°48' W 123°11'0 0.0
2018-Jan-18 05:00N 48°48' W 123°11'0 0.0
2018-Jan-18 04:29N 48°48' W 123°11'0 0.0
2018-Jan-18 03:58N 48°48' W 123°11'0 0.0
2018-Jan-18 03:29N 48°48' W 123°11'0 0.0
2018-Jan-18 02:59N 48°48' W 123°11'0 0.0
2018-Jan-18 02:29N 48°48' W 123°11'0 0.0
2018-Jan-18 02:00N 48°48' W 123°11'0 0.0
2018-Jan-18 01:30N 48°48' W 123°11'0 0.0
2018-Jan-18 00:59N 48°48' W 123°11'0 0.0
2018-Jan-17 23:55N 48°48' W 123°11'  
2018-Jan-12 13:14N 47°05' W 122°55'1 1.4
2018-Jan-12 12:45N 47°06' W 122°55'1 1.4
2018-Jan-12 12:22N 47°06' W 122°55'1 1.5
2018-Jan-12 11:55N 47°07' W 122°55'1 1.4
2018-Jan-12 11:16N 47°08' W 122°55'0 1.3
2018-Jan-12 10:58N 47°08' W 122°55'2 1.7
2018-Jan-12 09:48N 47°10' W 122°53'9 1.5
2018-Jan-12 03:27N 47°11' W 122°39'1 1.4
2018-Jan-12 03:00N 47°12' W 122°38'1 1.2
2018-Jan-12 02:30N 47°12' W 122°38'0 0.7
2018-Jan-12 01:57N 47°12' W 122°38'1 0.2
2018-Jan-11 18:32N 47°13' W 122°36'0 1.9
2018-Jan-11 18:30N 47°13' W 122°36'1 2.6
2018-Jan-11 18:00N 47°14' W 122°35'1 2.7
2018-Jan-11 17:30N 47°15' W 122°34'2 3.5
2018-Jan-11 16:59N 47°17' W 122°32'1 2.4
2018-Jan-11 16:30N 47°18' W 122°32'1 1.7
2018-Jan-11 15:59N 47°19' W 122°33'1 1.6
2018-Jan-11 15:30N 47°19' W 122°33'1 1.4
2018-Jan-11 15:00N 47°19' W 122°32'1 1.1
2018-Jan-11 14:30N 47°19' W 122°31'1 1.1
2018-Jan-11 14:00N 47°19' W 122°31'1 1.1
2018-Jan-11 13:30N 47°18' W 122°30'1 1.5
2018-Jan-11 13:00N 47°18' W 122°29'0 1.0
2018-Jan-11 12:30N 47°18' W 122°29'1 1.2
2018-Jan-11 12:00N 47°17' W 122°28'0 0.2
2018-Jan-11 11:30N 47°17' W 122°28'0 0.2
2018-Jan-11 11:00N 47°17' W 122°28'0 0.2
2018-Jan-11 10:30N 47°17' W 122°28'0 0.2
2018-Jan-11 10:00N 47°17' W 122°28'0 0.2
2018-Jan-11 09:30N 47°17' W 122°28'0 0.2
2018-Jan-11 09:00N 47°17' W 122°29'0 0.5
2018-Jan-11 08:30N 47°18' W 122°29'0 0.5
2018-Jan-11 08:00N 47°18' W 122°29'0 0.5
2018-Jan-11 07:30N 47°18' W 122°29'0 0.8
2018-Jan-11 07:00N 47°17' W 122°28'0 0.7
2018-Jan-11 06:30N 47°17' W 122°28'0 0.6
2018-Jan-11 06:00N 47°17' W 122°28'0 0.4
2018-Jan-11 05:30N 47°17' W 122°28'0 1.0
2018-Jan-11 05:00N 47°17' W 122°28'0 0.7
2018-Jan-11 04:30N 47°17' W 122°29'0 0.6
2018-Jan-11 04:00N 47°18' W 122°29'0 0.6
2018-Jan-11 03:30N 47°18' W 122°29'0 0.8
2018-Jan-11 03:00N 47°18' W 122°29'1 1.6
2018-Jan-11 02:30N 47°19' W 122°30'0 0.5
2018-Jan-11 02:00N 47°19' W 122°30'1 1.9
2018-Jan-11 01:30N 47°20' W 122°28'1 1.7
2018-Jan-11 01:00N 47°20' W 122°27'1 1.5
2018-Jan-11 00:30N 47°21' W 122°27'1 1.4
2018-Jan-11 00:00N 47°21' W 122°26'1 1.3
2018-Jan-10 23:30N 47°22' W 122°25'1 1.4
2018-Jan-10 23:00N 47°22' W 122°24'1 1.2
2018-Jan-10 22:30N 47°22' W 122°24'1 1.0
2018-Jan-10 22:00N 47°23' W 122°23'0 0.9
2018-Jan-10 21:30N 47°23' W 122°23'0 0.9
2018-Jan-10 21:00N 47°23' W 122°22'1 1.1
2018-Jan-10 20:30N 47°24' W 122°22'1 1.2
2018-Jan-10 20:00N 47°24' W 122°23'1 1.4
2018-Jan-10 19:30N 47°24' W 122°24'1 1.7
2018-Jan-10 19:00N 47°25' W 122°25'1 1.6
2018-Jan-10 18:30N 47°26' W 122°25'1 1.5
2018-Jan-10 18:00N 47°27' W 122°25'1 1.3
2018-Jan-10 17:30N 47°27' W 122°25'1 1.3
2018-Jan-10 17:00N 47°28' W 122°26'1 1.3
2018-Jan-10 16:30N 47°28' W 122°26'1 1.5
2018-Jan-10 16:00N 47°29' W 122°26'1 1.6
2018-Jan-10 15:30N 47°30' W 122°27'1 1.9
2018-Jan-10 15:00N 47°31' W 122°27'1 1.8
2018-Jan-10 14:31N 47°32' W 122°27'1 1.6
2018-Jan-10 14:01N 47°32' W 122°28'1 1.5
2018-Jan-10 13:30N 47°33' W 122°28'1 1.5
2018-Jan-10 13:00N 47°34' W 122°28'1 1.5
2018-Jan-10 12:30N 47°35' W 122°28'1 1.8
2018-Jan-10 12:00N 47°36' W 122°28'1 1.8
2018-Jan-10 11:30N 47°36' W 122°28'1 1.5
2018-Jan-10 11:00N 47°37' W 122°29'1 1.3
2018-Jan-10 10:30N 47°38' W 122°29'1 1.5
2018-Jan-10 10:00N 47°39' W 122°29'1 1.2
2018-Jan-10 09:30N 47°39' W 122°29'1 1.2
2018-Jan-10 09:00N 47°40' W 122°29'1 1.0
2018-Jan-10 08:30N 47°40' W 122°29'0 1.0
2018-Jan-10 08:00N 47°41' W 122°29'1 1.1
2018-Jan-10 07:30N 47°41' W 122°29'1 1.2
2018-Jan-10 07:00N 47°42' W 122°29'1 1.3
2018-Jan-10 06:30N 47°42' W 122°29'1 1.4
2018-Jan-10 06:00N 47°43' W 122°29'1 1.4
2018-Jan-10 05:30N 47°44' W 122°28'1 1.6
2018-Jan-10 05:00N 47°45' W 122°28'1 2.0
2018-Jan-10 04:30N 47°46' W 122°28'1 1.7
2018-Jan-10 04:00N 47°46' W 122°27'1 1.6
2018-Jan-10 03:30N 47°47' W 122°26'1 1.5
2018-Jan-10 03:00N 47°47' W 122°25'1 1.2
2018-Jan-10 02:30N 47°48' W 122°25'1 1.1
2018-Jan-10 02:00N 47°48' W 122°25'1 1.4
2018-Jan-10 01:30N 47°49' W 122°25'1 2.0
2018-Jan-10 01:00N 47°50' W 122°24'1 2.3
2018-Jan-10 00:30N 47°51' W 122°23'1 2.6
2018-Jan-10 00:00N 47°52' W 122°22'2 3.2
2018-Jan-09 23:30N 47°53' W 122°21'2 3.0
2018-Jan-09 23:00N 47°55' W 122°21'1 3.0
2018-Jan-09 22:30N 47°56' W 122°20'1 2.7
2018-Jan-09 22:00N 47°57' W 122°19'1 2.3
2018-Jan-09 21:30N 47°58' W 122°18'1 2.1
2018-Jan-09 21:00N 47°58' W 122°16'1 1.9
2018-Jan-09 20:30N 47°58' W 122°15'1 1.8
2018-Jan-09 20:00N 47°59' W 122°13'0 0.5
2018-Jan-09 19:30N 47°59' W 122°13'0 0.0
2018-Jan-09 19:00N 47°59' W 122°13'0 0.0
2018-Jan-09 18:30N 47°59' W 122°13'0 0.0
2018-Jan-09 18:00N 47°59' W 122°13'0 0.0
2018-Jan-09 17:30N 47°59' W 122°13'0 0.0
2018-Jan-09 17:00N 47°59' W 122°13'0 0.0
2018-Jan-09 16:30N 47°59' W 122°13'0 0.0
2018-Jan-09 16:00N 47°59' W 122°13'0 0.0
2018-Jan-09 15:30N 47°59' W 122°13'0 0.0
2018-Jan-09 15:00N 47°59' W 122°13'0 0.0
2018-Jan-09 14:30N 47°59' W 122°13'0 0.0
2018-Jan-09 14:00N 47°59' W 122°13'0 0.4
2018-Jan-09 13:30N 47°59' W 122°13'0 0.1
2018-Jan-09 13:00N 47°59' W 122°13'0 0.1
2018-Jan-09 12:30N 47°59' W 122°13'0 0.3
2018-Jan-09 12:00N 47°59' W 122°13'1 1.6
2018-Jan-09 11:30N 47°58' W 122°14'0 0.3
2018-Jan-09 11:00N 47°58' W 122°15'1 1.6
2018-Jan-09 10:30N 47°59' W 122°16'1 2.3
2018-Jan-09 10:00N 47°60' W 122°17'1 2.5
2018-Jan-09 09:30N 48°01' W 122°17'1 2.2
2018-Jan-09 08:58N 48°02' W 122°19'1 2.0
2018-Jan-09 08:24N 48°02' W 122°20'1 2.1
2018-Jan-09 07:57N 48°02' W 122°22'1 1.9
2018-Jan-09 07:26N 48°03' W 122°23'1 1.8
2018-Jan-09 07:00N 48°03' W 122°24'1 1.7
2018-Jan-09 06:30N 48°04' W 122°25'1 1.6
2018-Jan-09 05:58N 48°05' W 122°26'1 1.6
2018-Jan-09 05:24N 48°05' W 122°27'1 1.7
2018-Jan-09 04:51N 48°06' W 122°28'4 1.8
2018-Jan-09 02:22N 48°09' W 122°32'1 2.0
2018-Jan-09 02:00N 48°10' W 122°33'5 2.1
2018-Jan-08 23:38N 48°15' W 122°33'0 2.1
2018-Jan-08 23:26N 48°15' W 122°33'1 2.3
2018-Jan-08 22:56N 48°16' W 122°32'1 2.4
2018-Jan-08 22:30N 48°17' W 122°31'1 2.6
2018-Jan-08 21:55N 48°18' W 122°30'1 2.1
2018-Jan-08 21:27N 48°19' W 122°31'3 1.2
2018-Jan-08 18:58N 48°22' W 122°33'1 1.3
2018-Jan-08 18:28N 48°22' W 122°32'0 0.0
2018-Jan-08 17:57N 48°22' W 122°32'  

Dump ship's entire track history